createdAt,value
2022-11-14T00:02:06.211Z,12.98
2022-11-14T00:04:38.334Z,13.00
2022-11-14T00:07:07.821Z,12.27
2022-11-14T00:09:38.672Z,12.52
2022-11-14T00:12:08.688Z,11.10
2022-11-14T00:14:38.291Z,11.32
2022-11-14T00:17:07.997Z,12.55
2022-11-14T00:19:40.033Z,11.63
2022-11-14T00:22:09.547Z,11.38
2022-11-14T00:24:39.041Z,14.98
2022-11-14T00:27:08.533Z,15.30
2022-11-14T00:29:38.653Z,14.05
2022-11-14T00:32:08.707Z,13.85
2022-11-14T00:34:40.805Z,14.73
2022-11-14T00:37:10.251Z,13.88
2022-11-14T00:39:39.705Z,14.20
2022-11-14T00:42:09.285Z,15.38
2022-11-14T00:44:38.773Z,14.95
2022-11-14T00:47:08.385Z,13.25
2022-11-14T00:49:40.484Z,13.07
2022-11-14T00:52:09.984Z,13.43
2022-11-14T00:54:39.430Z,13.80
2022-11-14T00:57:09.064Z,13.18
2022-11-14T00:59:38.525Z,13.60
2022-11-14T01:02:08.029Z,14.13
2022-11-14T01:04:40.125Z,14.25
2022-11-14T01:07:09.641Z,14.05
2022-11-14T01:09:39.274Z,13.20
2022-11-14T01:12:08.801Z,13.85
2022-11-14T01:14:54.785Z,13.38
2022-11-14T01:17:24.408Z,14.45
2022-11-14T01:19:56.491Z,13.23
2022-11-14T01:22:25.987Z,13.88
2022-11-14T01:24:58.362Z,13.57
2022-11-14T01:27:27.950Z,13.48
2022-11-14T01:29:57.490Z,12.52
2022-11-14T01:32:26.969Z,12.07
2022-11-14T01:34:59.065Z,13.43
2022-11-14T01:37:28.562Z,13.25
2022-11-14T01:39:58.093Z,13.63
2022-11-14T01:42:27.773Z,15.73
2022-11-14T01:44:57.272Z,13.50
2022-11-14T01:47:28.522Z,14.70
2022-11-14T01:50:01.616Z,13.75
2022-11-14T01:52:31.909Z,15.23
2022-11-14T01:55:03.054Z,13.80
2022-11-14T02:00:04.395Z,16.08
2022-11-14T02:02:33.893Z,15.10
2022-11-14T02:05:08.256Z,16.98
2022-11-14T02:07:40.355Z,16.63
2022-11-14T02:10:11.881Z,17.58
2022-11-14T02:12:41.356Z,17.02
2022-11-14T02:15:11.921Z,24.85
2022-11-14T02:17:41.413Z,17.13
2022-11-14T02:20:24.299Z,18.95
2022-11-14T02:22:53.744Z,18.20
2022-11-14T02:25:23.273Z,18.48
2022-11-14T02:27:52.825Z,20.50
2022-11-14T02:30:23.841Z,18.17
2022-11-14T02:35:45.382Z,18.58
2022-11-14T02:38:14.883Z,18.98
2022-11-14T02:40:44.350Z,20.42
2022-11-14T02:43:13.805Z,21.58
2022-11-14T02:45:43.287Z,20.33
2022-11-14T02:48:12.775Z,24.80
2022-11-14T02:50:44.834Z,24.17
2022-11-14T02:53:14.309Z,25.85
2022-11-14T02:55:43.829Z,26.42
2022-11-14T02:58:13.304Z,31.23
2022-11-14T03:01:05.994Z,31.92
2022-11-14T03:03:32.299Z,37.97
2022-11-14T03:06:05.060Z,34.80
2022-11-14T03:08:34.577Z,38.05
2022-11-14T03:11:06.928Z,34.22
2022-11-14T03:13:36.497Z,36.55
2022-11-14T03:16:10.051Z,34.63
2022-11-14T03:18:39.536Z,35.25
2022-11-14T03:21:11.968Z,38.50
2022-11-14T03:23:41.475Z,35.72
2022-11-14T03:26:11.840Z,37.58
2022-11-14T03:28:41.815Z,38.97
2022-11-14T03:31:12.475Z,41.25
2022-11-14T03:33:41.969Z,45.47
2022-11-14T03:36:14.072Z,47.15
2022-11-14T03:38:43.666Z,44.92
2022-11-14T03:41:13.549Z,40.92
2022-11-14T03:43:42.991Z,40.28
2022-11-14T03:46:12.446Z,48.08
2022-11-14T03:48:42.213Z,41.67
2022-11-14T03:51:14.300Z,47.72
2022-11-14T03:53:44.328Z,43.53
2022-11-14T03:56:13.902Z,44.97
2022-11-14T03:58:46.610Z,47.55
2022-11-14T04:01:16.850Z,42.17
2022-11-14T04:03:46.416Z,42.97
2022-11-14T04:06:18.963Z,40.53
2022-11-14T04:08:51.942Z,37.50
2022-11-14T04:11:22.059Z,36.60
2022-11-14T04:13:51.542Z,38.03
2022-11-14T04:16:21.029Z,35.00
2022-11-14T04:18:50.529Z,36.28
2022-11-14T04:21:22.634Z,33.20
2022-11-14T04:23:52.382Z,34.13
2022-11-14T04:26:21.925Z,32.25
2022-11-14T04:28:51.433Z,33.80
2022-11-14T04:31:20.899Z,34.60
2022-11-14T04:33:50.409Z,33.28
2022-11-14T04:36:22.485Z,32.05
2022-11-14T04:38:51.971Z,32.97
2022-11-14T04:41:21.449Z,33.88
2022-11-14T04:43:51.218Z,33.75
2022-11-14T04:46:20.743Z,33.28
2022-11-14T04:48:50.248Z,30.33
2022-11-14T04:51:22.319Z,30.00
2022-11-14T04:53:51.844Z,35.95
2022-11-14T04:56:23.227Z,33.13
2022-11-14T04:58:52.753Z,34.78
2022-11-14T05:01:22.300Z,35.70
2022-11-14T05:03:51.857Z,36.47
2022-11-14T05:06:23.946Z,34.10
2022-11-14T05:08:53.417Z,30.50
2022-11-14T05:11:27.958Z,33.78
2022-11-14T05:13:58.623Z,34.47
2022-11-14T05:16:28.125Z,32.85
2022-11-14T05:18:57.632Z,36.00
2022-11-14T05:21:29.691Z,40.53
2022-11-14T05:23:59.173Z,39.67
2022-11-14T05:26:28.660Z,41.55
2022-11-14T05:28:58.162Z,44.53
2022-11-14T05:31:27.676Z,40.42
2022-11-14T05:33:57.161Z,37.85
2022-11-14T05:36:29.224Z,40.17
2022-11-14T05:38:58.708Z,39.08
2022-11-14T05:41:28.211Z,42.83
2022-11-14T05:43:57.725Z,41.25
2022-11-14T05:46:27.256Z,41.28
2022-11-14T05:48:57.002Z,42.75
2022-11-14T05:51:29.080Z,44.17
2022-11-14T05:53:58.567Z,49.10
2022-11-14T05:56:28.046Z,46.55
2022-11-14T05:58:57.551Z,49.63
2022-11-14T06:01:27.921Z,47.95
2022-11-14T06:03:57.423Z,43.20
2022-11-14T06:06:29.493Z,39.47
2022-11-14T06:08:58.965Z,42.45
2022-11-14T06:11:28.450Z,42.08
2022-11-14T06:13:57.930Z,47.78
2022-11-14T06:16:27.412Z,42.15
2022-11-14T06:18:57.252Z,43.95
2022-11-14T06:21:29.323Z,43.78
2022-11-14T06:23:58.838Z,43.80
2022-11-14T06:26:30.272Z,43.70
2022-11-14T06:29:00.261Z,40.22
2022-11-14T06:31:29.940Z,42.75
2022-11-14T06:33:59.553Z,40.65
2022-11-14T06:36:32.343Z,42.40
2022-11-14T06:39:01.890Z,41.08
2022-11-14T06:41:31.371Z,40.47
2022-11-14T06:44:00.868Z,42.10
2022-11-14T06:46:30.365Z,44.72
2022-11-14T06:48:59.855Z,41.47
2022-11-14T06:51:31.927Z,39.47
2022-11-14T06:54:01.461Z,38.40
2022-11-14T06:56:31.031Z,41.80
2022-11-14T06:59:00.532Z,42.97
2022-11-14T07:01:30.032Z,44.70
2022-11-14T07:04:00.703Z,43.28
2022-11-14T07:06:33.312Z,45.67
2022-11-14T07:09:02.780Z,41.65
2022-11-14T07:11:33.215Z,41.65
2022-11-14T07:14:03.142Z,44.15
2022-11-14T07:16:34.972Z,43.33
2022-11-14T07:19:05.033Z,44.38
2022-11-14T07:21:37.319Z,40.58
2022-11-14T07:24:07.337Z,39.15
2022-11-14T07:26:36.913Z,40.13
2022-11-14T07:29:06.379Z,39.25
2022-11-14T07:31:35.905Z,39.63
2022-11-14T07:34:06.103Z,36.75
2022-11-14T07:36:38.179Z,37.47
2022-11-14T07:39:07.640Z,42.90
2022-11-14T07:41:37.106Z,52.28
2022-11-14T07:44:07.102Z,41.72
2022-11-14T07:46:36.637Z,38.13
2022-11-14T07:49:06.184Z,38.80
2022-11-14T07:51:38.294Z,39.53
2022-11-14T07:54:07.887Z,36.50
2022-11-14T07:56:37.372Z,39.15
2022-11-14T07:59:06.930Z,40.10
2022-11-14T08:01:36.452Z,33.35
2022-11-14T08:04:06.025Z,37.67
2022-11-14T08:06:38.097Z,36.10
2022-11-14T08:09:07.567Z,45.60
2022-11-14T08:11:52.131Z,49.53
2022-11-14T08:14:21.637Z,42.55
2022-11-14T08:16:51.149Z,34.85
2022-11-14T08:19:20.921Z,32.75
2022-11-14T08:21:52.990Z,35.28
2022-11-14T08:24:22.522Z,34.25
2022-11-14T08:26:51.991Z,33.38
2022-11-14T08:29:21.507Z,36.13
2022-11-14T08:31:54.486Z,37.60
2022-11-14T08:34:29.197Z,38.00
2022-11-14T08:37:01.226Z,38.33
2022-11-14T08:39:30.748Z,38.60
2022-11-14T08:42:00.243Z,34.35
2022-11-14T08:44:29.713Z,36.67
2022-11-14T08:47:00.371Z,36.05
2022-11-14T08:49:29.931Z,37.22
2022-11-14T08:52:01.996Z,36.22
2022-11-14T08:54:31.896Z,38.90
2022-11-14T08:57:01.373Z,33.85
2022-11-14T08:59:30.856Z,34.60
2022-11-14T09:02:00.401Z,35.97
2022-11-14T09:04:29.892Z,38.78
2022-11-14T09:07:02.037Z,36.75
2022-11-14T09:09:31.536Z,36.53
2022-11-14T09:12:00.998Z,37.13
2022-11-14T09:14:30.473Z,33.72
2022-11-14T09:17:05.539Z,35.17
2022-11-14T09:19:35.504Z,34.55
2022-11-14T09:22:07.558Z,35.22
2022-11-14T09:24:37.076Z,35.35
2022-11-14T09:27:06.641Z,35.00
2022-11-14T09:29:36.214Z,34.60
2022-11-14T09:32:05.837Z,36.72
2022-11-14T09:34:37.212Z,34.05
2022-11-14T09:37:09.276Z,35.25
2022-11-14T09:39:40.725Z,33.55
2022-11-14T09:42:18.764Z,32.42
2022-11-14T09:44:57.698Z,35.50
2022-11-14T09:47:28.743Z,35.28
2022-11-14T09:49:59.355Z,33.78
2022-11-14T09:52:36.477Z,38.45
2022-11-14T09:55:11.845Z,38.80
2022-11-14T09:57:41.531Z,39.25
2022-11-14T10:00:18.881Z,37.30
2022-11-14T10:02:58.418Z,35.67
2022-11-14T10:05:39.077Z,39.35
2022-11-14T10:08:27.672Z,35.80
2022-11-14T10:10:57.723Z,36.35
2022-11-14T10:13:33.982Z,36.67
2022-11-14T10:16:06.050Z,35.10
2022-11-14T10:18:42.212Z,38.38
2022-11-14T10:21:19.391Z,43.50
2022-11-14T10:23:54.908Z,35.70
2022-11-14T10:26:30.144Z,33.28
2022-11-14T10:29:14.855Z,34.78
2022-11-14T10:31:48.262Z,33.53
2022-11-14T10:34:20.653Z,35.33
2022-11-14T10:36:59.044Z,33.53
2022-11-14T10:39:33.489Z,35.50
2022-11-14T10:42:07.847Z,35.55
2022-11-14T10:44:39.762Z,34.28
2022-11-14T10:47:10.133Z,31.90
2022-11-14T10:49:39.851Z,33.83
2022-11-14T10:52:10.357Z,34.42
2022-11-14T10:54:43.893Z,31.63
2022-11-14T10:57:20.331Z,33.33
2022-11-14T10:59:50.021Z,32.67
2022-11-14T11:02:19.895Z,40.42
2022-11-14T11:04:49.484Z,34.78
2022-11-14T11:07:38.826Z,31.73
2022-11-14T11:10:34.668Z,32.33
2022-11-14T11:13:06.940Z,34.42
2022-11-14T11:15:42.743Z,31.60
2022-11-14T11:18:29.745Z,31.88
2022-11-14T11:21:10.635Z,31.48
2022-11-14T11:23:53.237Z,32.60
2022-11-14T11:26:26.415Z,28.50
2022-11-14T11:29:10.513Z,29.67
2022-11-14T11:31:52.901Z,35.05
2022-11-14T11:34:25.540Z,27.73
2022-11-14T11:36:56.990Z,31.85
2022-11-14T11:39:28.184Z,30.10
2022-11-14T11:42:09.829Z,29.05
2022-11-14T11:44:42.784Z,28.08
2022-11-14T11:47:13.914Z,28.77
2022-11-14T11:52:22.774Z,27.45
2022-11-14T11:54:56.320Z,27.92
2022-11-14T11:57:32.279Z,28.30
2022-11-14T12:00:06.590Z,26.52
2022-11-14T12:02:36.152Z,26.02
2022-11-14T12:05:05.944Z,27.45
2022-11-14T12:07:39.990Z,30.15
2022-11-14T12:10:14.552Z,28.10
2022-11-14T12:13:02.627Z,29.10
2022-11-14T12:15:34.789Z,28.23
2022-11-14T12:18:38.163Z,31.65
2022-11-14T12:21:19.693Z,28.75
2022-11-14T12:24:10.196Z,27.90
2022-11-14T12:26:47.982Z,24.63
2022-11-14T12:29:28.416Z,27.40
2022-11-14T12:31:59.895Z,25.17
2022-11-14T12:34:30.268Z,28.00
2022-11-14T12:36:59.783Z,26.45
2022-11-14T12:39:30.132Z,27.10
2022-11-14T12:42:05.462Z,27.70
2022-11-14T12:44:39.234Z,27.70
2022-11-14T12:47:19.721Z,26.58
2022-11-14T12:50:09.004Z,29.73
2022-11-14T12:52:52.952Z,27.02
2022-11-14T12:56:09.917Z,26.85
2022-11-14T12:58:51.348Z,24.10
2022-11-14T13:01:35.489Z,25.25
2022-11-14T13:04:12.214Z,23.38
2022-11-14T13:06:46.070Z,22.08
2022-11-14T13:09:36.548Z,21.75
2022-11-14T13:12:42.837Z,22.10
2022-11-14T13:15:37.369Z,24.15
2022-11-14T13:18:28.025Z,26.15
2022-11-14T13:21:16.728Z,24.08
2022-11-14T13:23:59.217Z,23.95
2022-11-14T13:26:44.434Z,24.80
2022-11-14T13:30:02.708Z,22.00
2022-11-14T13:32:58.987Z,23.95
2022-11-14T13:35:46.848Z,24.08
2022-11-14T13:38:41.661Z,21.23
2022-11-14T13:41:37.234Z,19.52
2022-11-14T13:44:53.308Z,18.73
2022-11-14T13:47:52.458Z,20.80
2022-11-14T13:50:22.347Z,19.60
2022-11-14T13:52:54.446Z,19.77
2022-11-14T13:55:24.521Z,20.35
2022-11-14T13:58:02.709Z,20.23
2022-11-14T14:00:32.355Z,18.92
2022-11-14T14:03:18.122Z,19.27
2022-11-14T14:06:06.393Z,20.98
2022-11-14T14:08:49.930Z,19.85
2022-11-14T14:11:49.181Z,20.50
2022-11-14T14:14:28.996Z,19.33
2022-11-14T14:16:59.898Z,18.30
2022-11-14T14:19:37.689Z,19.65
2022-11-14T14:22:09.709Z,23.88
2022-11-14T14:24:49.879Z,21.27
2022-11-14T14:27:22.191Z,17.73
2022-11-14T14:29:56.193Z,17.92
2022-11-14T14:32:26.375Z,19.67
2022-11-14T14:34:58.568Z,19.27
2022-11-14T14:37:28.866Z,20.38
2022-11-14T14:40:01.608Z,19.47
2022-11-14T14:42:35.139Z,18.67
2022-11-14T14:45:04.852Z,17.80
2022-11-14T14:47:37.569Z,17.55
2022-11-14T14:50:09.440Z,16.95
2022-11-14T14:52:39.714Z,20.35
2022-11-14T14:55:24.040Z,16.77
2022-11-14T14:57:53.514Z,17.02
2022-11-14T15:00:26.101Z,17.23
2022-11-14T15:02:56.134Z,17.98
2022-11-14T15:05:26.335Z,18.92
2022-11-14T15:07:57.665Z,16.80
2022-11-14T15:10:31.874Z,18.70
2022-11-14T15:13:01.400Z,16.65
2022-11-14T15:15:31.157Z,19.10
2022-11-14T15:18:09.798Z,17.38
2022-11-14T15:20:39.282Z,16.42
2022-11-14T15:23:09.517Z,17.63
2022-11-14T15:25:41.667Z,15.77
2022-11-14T15:28:18.765Z,15.65
2022-11-14T15:30:59.036Z,16.27
2022-11-14T15:33:32.093Z,15.87
2022-11-14T15:36:09.190Z,14.93
2022-11-14T15:38:45.895Z,14.43
2022-11-14T15:41:24.790Z,17.08
2022-11-14T15:43:55.323Z,17.05
2022-11-14T15:46:42.394Z,21.88
2022-11-14T15:49:13.240Z,16.55
2022-11-14T15:51:44.713Z,16.55
2022-11-14T15:54:30.934Z,16.73
2022-11-14T15:57:04.292Z,15.98
2022-11-14T15:59:35.110Z,17.80
2022-11-14T16:02:07.117Z,17.50
2022-11-14T16:04:37.157Z,16.05
2022-11-14T16:07:06.746Z,16.17
2022-11-14T16:09:36.223Z,16.40
2022-11-14T16:12:08.622Z,15.95
2022-11-14T16:14:38.161Z,15.98
2022-11-14T16:17:07.665Z,17.67
2022-11-14T16:19:37.149Z,17.63
2022-11-14T16:22:06.605Z,17.42
2022-11-14T16:24:36.117Z,17.58
2022-11-14T16:27:08.217Z,18.27
2022-11-14T16:29:37.717Z,16.40
2022-11-14T16:32:07.421Z,17.13
2022-11-14T16:34:36.875Z,17.48
2022-11-14T16:37:06.358Z,18.02
2022-11-14T16:39:35.856Z,18.02
2022-11-14T16:42:08.492Z,16.58
2022-11-14T16:44:42.724Z,16.83
2022-11-14T16:47:15.429Z,17.15
2022-11-14T16:49:44.907Z,17.53
2022-11-14T16:52:16.544Z,17.70
2022-11-14T16:54:46.377Z,17.65
2022-11-14T16:57:18.436Z,19.38
2022-11-14T16:59:48.017Z,17.70
2022-11-14T17:02:18.338Z,17.60
2022-11-14T17:04:47.926Z,18.83
2022-11-14T17:07:21.701Z,18.02
2022-11-14T17:09:52.407Z,17.77
2022-11-14T17:12:24.543Z,20.77
2022-11-14T17:14:54.581Z,19.00
2022-11-14T17:17:24.092Z,19.70
2022-11-14T17:19:53.545Z,22.50
2022-11-14T17:22:23.046Z,18.20
2022-11-14T17:24:52.495Z,18.42
2022-11-14T17:27:24.606Z,16.48
2022-11-14T17:29:54.370Z,18.02
2022-11-14T17:32:23.825Z,17.80
2022-11-14T17:34:53.334Z,18.60
2022-11-14T17:37:22.800Z,19.95
2022-11-14T17:39:52.275Z,17.77
2022-11-14T17:42:24.350Z,19.38
2022-11-14T17:44:53.817Z,18.48
2022-11-14T17:47:23.296Z,19.55
2022-11-14T17:49:52.844Z,19.38
2022-11-14T17:52:25.207Z,17.40
2022-11-14T17:54:54.684Z,18.40
2022-11-14T17:57:26.736Z,19.90
2022-11-14T17:59:56.275Z,18.85
2022-11-14T18:02:25.781Z,17.98
2022-11-14T18:04:55.274Z,19.63
2022-11-14T18:07:24.799Z,18.55
2022-11-14T18:09:54.368Z,26.48
2022-11-14T18:12:26.506Z,22.10
2022-11-14T18:14:55.977Z,22.58
2022-11-14T18:17:25.517Z,23.42
2022-11-14T18:19:56.199Z,19.83
2022-11-14T18:22:25.693Z,19.63
2022-11-14T18:24:55.225Z,18.98
2022-11-14T18:27:27.282Z,19.48
2022-11-14T18:30:07.942Z,20.42
2022-11-14T18:32:43.059Z,20.05
2022-11-14T18:35:12.744Z,21.25
2022-11-14T18:37:42.187Z,21.30
2022-11-14T18:40:16.691Z,27.10
2022-11-14T18:42:49.048Z,23.75
2022-11-14T18:45:18.670Z,23.45
2022-11-14T18:47:48.124Z,19.98
2022-11-14T18:50:17.663Z,19.17
2022-11-14T18:52:47.136Z,20.45
2022-11-14T18:55:16.821Z,20.35
2022-11-14T18:57:48.838Z,20.15
2022-11-14T19:00:19.027Z,19.38
2022-11-14T19:02:52.239Z,18.30
2022-11-14T19:05:21.958Z,19.23
2022-11-14T19:07:51.430Z,17.65
2022-11-14T19:10:21.112Z,17.48
2022-11-14T19:12:53.144Z,17.80
2022-11-14T19:15:22.638Z,23.25
2022-11-14T19:17:52.103Z,20.25
2022-11-14T19:20:21.735Z,19.98
2022-11-14T19:22:51.424Z,19.33
2022-11-14T19:25:20.983Z,21.48
2022-11-14T19:27:55.238Z,22.77
2022-11-14T19:30:24.786Z,20.23
2022-11-14T19:32:54.401Z,23.00
2022-11-14T19:35:23.914Z,21.73
2022-11-14T19:37:53.356Z,22.30
2022-11-14T19:40:22.796Z,22.00
2022-11-14T19:43:01.909Z,21.73
2022-11-14T19:45:31.422Z,21.52
2022-11-14T19:48:00.864Z,21.90
2022-11-14T19:50:30.304Z,20.73
2022-11-14T19:53:00.028Z,21.67
2022-11-14T19:55:29.505Z,21.85
2022-11-14T19:58:01.634Z,22.25
2022-11-14T20:00:31.931Z,21.88
2022-11-14T20:03:01.385Z,21.75
2022-11-14T20:05:30.831Z,21.48
2022-11-14T20:08:00.305Z,22.85
2022-11-14T20:10:29.747Z,22.20
2022-11-14T20:13:01.804Z,22.42
2022-11-14T20:15:32.284Z,22.30
2022-11-14T20:18:01.740Z,26.55
2022-11-14T20:20:31.167Z,22.52
2022-11-14T20:23:00.647Z,24.40
2022-11-14T20:25:30.105Z,21.42
2022-11-14T20:28:02.332Z,21.60
2022-11-14T20:30:31.806Z,20.95
2022-11-14T20:33:01.290Z,19.92
2022-11-14T20:35:30.802Z,23.30
2022-11-14T20:38:04.262Z,23.60
2022-11-14T20:40:34.251Z,23.25
2022-11-14T20:43:07.245Z,27.08
2022-11-14T20:45:36.723Z,26.33
2022-11-14T20:48:06.546Z,25.67
2022-11-14T20:50:36.031Z,25.60
2022-11-14T20:53:05.527Z,26.70
2022-11-14T20:55:34.976Z,27.35
2022-11-14T20:58:07.045Z,25.45
2022-11-14T21:00:36.540Z,26.27
2022-11-14T21:03:06.027Z,21.25
2022-11-14T21:05:35.453Z,20.40
2022-11-14T21:08:04.892Z,24.65
2022-11-14T21:10:50.748Z,23.23
2022-11-14T21:13:39.234Z,22.98
2022-11-14T21:16:10.152Z,21.90
2022-11-14T21:18:45.178Z,23.10
2022-11-14T21:21:18.535Z,22.23
2022-11-14T21:23:48.243Z,22.30
2022-11-14T21:26:18.502Z,21.90
2022-11-14T21:28:51.739Z,23.23
2022-11-14T21:31:22.581Z,24.23
2022-11-14T21:33:52.763Z,22.83
2022-11-14T21:36:43.810Z,27.30
2022-11-14T21:39:14.961Z,24.48
2022-11-14T21:41:45.295Z,20.90
2022-11-14T21:44:18.040Z,20.05
2022-11-14T21:46:49.582Z,19.95
2022-11-14T21:49:19.234Z,21.63
2022-11-14T21:51:48.937Z,19.88
2022-11-14T21:54:18.489Z,21.05
2022-11-14T21:56:47.932Z,20.50
2022-11-14T21:59:23.863Z,20.65
2022-11-14T22:02:06.088Z,19.02
2022-11-14T22:04:35.802Z,18.85
2022-11-14T22:07:07.595Z,18.70
2022-11-14T22:09:42.592Z,19.98
2022-11-14T22:12:14.534Z,22.40
2022-11-14T22:14:46.579Z,23.50
2022-11-14T22:17:16.020Z,24.52
2022-11-14T22:19:45.487Z,21.90
2022-11-14T22:22:14.960Z,22.77
2022-11-14T22:24:44.422Z,23.63
2022-11-14T22:27:13.895Z,25.85
2022-11-14T22:29:45.948Z,23.00
2022-11-14T22:32:15.428Z,23.73
2022-11-14T22:34:44.886Z,23.83
2022-11-14T22:37:14.345Z,20.25
2022-11-14T22:39:43.804Z,20.33
2022-11-14T22:42:13.436Z,21.52
2022-11-14T22:44:42.933Z,20.33
2022-11-14T22:47:15.002Z,22.48
2022-11-14T22:49:44.442Z,22.10
2022-11-14T22:52:13.871Z,22.58
2022-11-14T22:54:43.339Z,23.35
2022-11-14T22:57:12.816Z,23.50
2022-11-14T22:59:42.273Z,23.25
2022-11-14T23:02:11.734Z,23.25
2022-11-14T23:04:43.807Z,25.42
2022-11-14T23:07:13.354Z,25.23
2022-11-14T23:09:43.710Z,28.30
2022-11-14T23:12:13.437Z,26.05
2022-11-14T23:14:42.895Z,26.08
2022-11-14T23:17:12.402Z,27.10
2022-11-14T23:19:44.448Z,26.15
2022-11-14T23:22:13.929Z,25.75
2022-11-14T23:24:43.393Z,25.50
2022-11-14T23:27:12.854Z,26.17
2022-11-14T23:29:42.302Z,24.65
2022-11-14T23:32:11.754Z,24.10
2022-11-14T23:34:43.805Z,26.33
2022-11-14T23:37:13.284Z,24.30
2022-11-14T23:39:42.785Z,23.85
2022-11-14T23:42:12.318Z,22.75
2022-11-14T23:44:41.912Z,23.58
2022-11-14T23:47:11.364Z,20.77
2022-11-14T23:49:40.842Z,21.70
2022-11-14T23:52:12.845Z,22.70
2022-11-14T23:54:42.328Z,21.45
2022-11-14T23:57:11.869Z,22.73
2022-11-14T23:59:41.322Z,22.65
